UGKO/KIU METAR and TAF weather

Enter ICAO airport designator
Station Type Date Time Source
UGKO METAR 2021/09/20 05:00 UTC NOAA

UGKO 200500Z 09003KT 040V130 CAVOK 20/16 Q1014 NOSIG


Station Type Date Time Source
UGKO Decoded METAR 2021/09/20 05:00 UTC NOAA

Station name not available
Sep 20, 2021 - 01:00 AM EDT / 2021.09.20 0500 UTC
Wind: from the E (090 degrees) at 3 MPH (3 KT) (direction variable):0
Visibility: greater than 7 mile(s):0
Temperature: 68 F (20 C)
Dew Point: 60 F (16 C)
Relative Humidity: 77%
Pressure (altimeter): 29.94 in. Hg (1014 hPa)
ob: UGKO 200500Z 09003KT 040V130 CAVOK 20/16 Q1014 NOSIG
cycle: 5

Station Type Date Time Source
UGKO TAF 2021/09/20 06:06 UTC NOAA

TAF UGKO 200500Z 2006/2106 08006KT CAVOK TX28/2011Z TN16/2103Z
TEMPO 2010/2015 25010KT

Example: see airport list